sensor_id;sensor_type;location;lat;lon;timestamp;temperature;humidity
22450;DHT22;11392;57.390;-2.468;2022-12-07T00:01:35;2.50;99.90
22450;DHT22;11392;57.390;-2.468;2022-12-07T00:04:06;2.50;99.90
22450;DHT22;11392;57.390;-2.468;2022-12-07T00:06:42;2.50;99.90
22450;DHT22;11392;57.390;-2.468;2022-12-07T00:09:14;2.50;99.90
22450;DHT22;11392;57.390;-2.468;2022-12-07T00:11:42;2.60;99.90
22450;DHT22;11392;57.390;-2.468;2022-12-07T00:14:14;2.60;99.90
22450;DHT22;11392;57.390;-2.468;2022-12-07T00:16:41;2.60;99.90
22450;DHT22;11392;57.390;-2.468;2022-12-07T00:19:10;2.60;99.90
22450;DHT22;11392;57.390;-2.468;2022-12-07T00:21:37;2.60;99.90
22450;DHT22;11392;57.390;-2.468;2022-12-07T00:24:05;2.60;99.90
22450;DHT22;11392;57.390;-2.468;2022-12-07T00:26:37;2.50;99.90
22450;DHT22;11392;57.390;-2.468;2022-12-07T00:29:07;2.50;99.90
22450;DHT22;11392;57.390;-2.468;2022-12-07T00:31:37;2.60;99.90
22450;DHT22;11392;57.390;-2.468;2022-12-07T00:36:37;2.60;99.90
22450;DHT22;11392;57.390;-2.468;2022-12-07T00:39:04;2.50;99.90
22450;DHT22;11392;57.390;-2.468;2022-12-07T00:41:31;2.60;99.90
22450;DHT22;11392;57.390;-2.468;2022-12-07T00:43:58;2.60;99.90
22450;DHT22;11392;57.390;-2.468;2022-12-07T00:46:25;2.60;99.90
22450;DHT22;11392;57.390;-2.468;2022-12-07T00:48:53;2.50;99.90
22450;DHT22;11392;57.390;-2.468;2022-12-07T00:51:22;2.60;99.90
22450;DHT22;11392;57.390;-2.468;2022-12-07T00:53:50;2.60;99.90
22450;DHT22;11392;57.390;-2.468;2022-12-07T00:56:23;2.60;99.90
22450;DHT22;11392;57.390;-2.468;2022-12-07T00:58:59;2.60;99.90
22450;DHT22;11392;57.390;-2.468;2022-12-07T01:01:28;2.70;99.90
22450;DHT22;11392;57.390;-2.468;2022-12-07T01:03:56;2.70;99.90
22450;DHT22;11392;57.390;-2.468;2022-12-07T01:06:24;2.70;99.90
22450;DHT22;11392;57.390;-2.468;2022-12-07T01:08:51;2.70;99.90
22450;DHT22;11392;57.390;-2.468;2022-12-07T01:11:21;2.70;99.90
22450;DHT22;11392;57.390;-2.468;2022-12-07T01:13:53;2.70;99.90
22450;DHT22;11392;57.390;-2.468;2022-12-07T01:16:22;2.70;99.90
22450;DHT22;11392;57.390;-2.468;2022-12-07T01:18:53;2.70;99.90
22450;DHT22;11392;57.390;-2.468;2022-12-07T01:21:25;2.70;99.90
22450;DHT22;11392;57.390;-2.468;2022-12-07T01:23:53;2.70;99.90
22450;DHT22;11392;57.390;-2.468;2022-12-07T01:26:24;2.70;99.90
22450;DHT22;11392;57.390;-2.468;2022-12-07T01:28:51;2.70;99.90
22450;DHT22;11392;57.390;-2.468;2022-12-07T01:31:24;2.80;99.90
22450;DHT22;11392;57.390;-2.468;2022-12-07T01:33:56;2.80;99.90
22450;DHT22;11392;57.390;-2.468;2022-12-07T01:36:35;2.70;99.90
22450;DHT22;11392;57.390;-2.468;2022-12-07T01:39:05;2.80;99.90
22450;DHT22;11392;57.390;-2.468;2022-12-07T01:41:35;2.80;99.90
22450;DHT22;11392;57.390;-2.468;2022-12-07T01:46:58;2.80;99.90
22450;DHT22;11392;57.390;-2.468;2022-12-07T01:49:33;2.90;99.90
22450;DHT22;11392;57.390;-2.468;2022-12-07T01:54:44;2.80;99.90
22450;DHT22;11392;57.390;-2.468;2022-12-07T01:57:14;2.80;99.90
22450;DHT22;11392;57.390;-2.468;2022-12-07T01:59:43;2.90;99.90
22450;DHT22;11392;57.390;-2.468;2022-12-07T02:02:29;2.90;99.90
22450;DHT22;11392;57.390;-2.468;2022-12-07T02:05:00;2.90;99.90
22450;DHT22;11392;57.390;-2.468;2022-12-07T02:07:28;2.90;99.90
22450;DHT22;11392;57.390;-2.468;2022-12-07T02:09:55;3.00;99.90
22450;DHT22;11392;57.390;-2.468;2022-12-07T02:12:23;3.00;99.90
22450;DHT22;11392;57.390;-2.468;2022-12-07T02:14:51;3.00;99.90
22450;DHT22;11392;57.390;-2.468;2022-12-07T02:17:26;3.00;99.90
22450;DHT22;11392;57.390;-2.468;2022-12-07T02:28:36;2.90;99.90
22450;DHT22;11392;57.390;-2.468;2022-12-07T02:31:14;2.90;99.90
22450;DHT22;11392;57.390;-2.468;2022-12-07T02:33:57;2.80;99.90
22450;DHT22;11392;57.390;-2.468;2022-12-07T02:36:34;2.80;99.90
22450;DHT22;11392;57.390;-2.468;2022-12-07T02:41:51;2.80;99.90
22450;DHT22;11392;57.390;-2.468;2022-12-07T02:44:23;2.80;99.90
22450;DHT22;11392;57.390;-2.468;2022-12-07T02:46:54;2.90;99.90
22450;DHT22;11392;57.390;-2.468;2022-12-07T02:49:24;2.90;99.90
22450;DHT22;11392;57.390;-2.468;2022-12-07T02:51:52;3.00;99.90
22450;DHT22;11392;57.390;-2.468;2022-12-07T02:54:20;3.00;99.90
22450;DHT22;11392;57.390;-2.468;2022-12-07T02:56:57;3.00;99.90
22450;DHT22;11392;57.390;-2.468;2022-12-07T03:16:20;2.50;99.90
22450;DHT22;11392;57.390;-2.468;2022-12-07T03:19:07;2.50;99.90
22450;DHT22;11392;57.390;-2.468;2022-12-07T03:21:51;2.40;99.90
22450;DHT22;11392;57.390;-2.468;2022-12-07T03:24:23;2.50;99.90
22450;DHT22;11392;57.390;-2.468;2022-12-07T03:27:04;2.50;99.90
22450;DHT22;11392;57.390;-2.468;2022-12-07T03:29:40;2.40;99.90
22450;DHT22;11392;57.390;-2.468;2022-12-07T03:32:40;2.40;99.90
22450;DHT22;11392;57.390;-2.468;2022-12-07T03:35:21;2.50;99.90
22450;DHT22;11392;57.390;-2.468;2022-12-07T03:38:04;2.40;99.90
22450;DHT22;11392;57.390;-2.468;2022-12-07T03:40:44;2.30;99.90
22450;DHT22;11392;57.390;-2.468;2022-12-07T03:43:12;2.30;99.90
22450;DHT22;11392;57.390;-2.468;2022-12-07T03:45:44;2.30;99.90
22450;DHT22;11392;57.390;-2.468;2022-12-07T03:48:22;2.30;99.90
22450;DHT22;11392;57.390;-2.468;2022-12-07T03:51:19;2.30;99.90
22450;DHT22;11392;57.390;-2.468;2022-12-07T03:54:13;2.30;99.90
22450;DHT22;11392;57.390;-2.468;2022-12-07T03:56:43;2.40;99.90
22450;DHT22;11392;57.390;-2.468;2022-12-07T03:59:12;2.30;99.90
22450;DHT22;11392;57.390;-2.468;2022-12-07T04:01:44;2.30;99.90
22450;DHT22;11392;57.390;-2.468;2022-12-07T04:04:17;2.30;99.90
22450;DHT22;11392;57.390;-2.468;2022-12-07T04:06:44;2.30;99.90
22450;DHT22;11392;57.390;-2.468;2022-12-07T04:09:11;2.30;99.90
22450;DHT22;11392;57.390;-2.468;2022-12-07T04:11:38;2.30;99.90
22450;DHT22;11392;57.390;-2.468;2022-12-07T04:14:05;2.20;99.90
22450;DHT22;11392;57.390;-2.468;2022-12-07T04:16:50;2.30;99.90
22450;DHT22;11392;57.390;-2.468;2022-12-07T04:19:20;2.30;99.90
22450;DHT22;11392;57.390;-2.468;2022-12-07T04:21:47;2.30;99.90
22450;DHT22;11392;57.390;-2.468;2022-12-07T04:24:15;2.20;99.90
22450;DHT22;11392;57.390;-2.468;2022-12-07T04:26:43;2.30;99.90
22450;DHT22;11392;57.390;-2.468;2022-12-07T04:29:10;2.30;99.90
22450;DHT22;11392;57.390;-2.468;2022-12-07T04:31:38;2.30;99.90
22450;DHT22;11392;57.390;-2.468;2022-12-07T04:34:06;2.30;99.90
22450;DHT22;11392;57.390;-2.468;2022-12-07T04:36:34;2.30;99.90
22450;DHT22;11392;57.390;-2.468;2022-12-07T04:39:02;2.30;99.90
22450;DHT22;11392;57.390;-2.468;2022-12-07T04:41:29;2.30;99.90
22450;DHT22;11392;57.390;-2.468;2022-12-07T04:43:58;2.20;99.90
22450;DHT22;11392;57.390;-2.468;2022-12-07T04:46:26;2.30;99.90
22450;DHT22;11392;57.390;-2.468;2022-12-07T04:48:54;2.30;99.90
22450;DHT22;11392;57.390;-2.468;2022-12-07T04:51:27;2.30;99.90
22450;DHT22;11392;57.390;-2.468;2022-12-07T04:53:55;2.30;99.90
22450;DHT22;11392;57.390;-2.468;2022-12-07T04:56:23;2.30;99.90
22450;DHT22;11392;57.390;-2.468;2022-12-07T04:58:52;2.30;99.90
22450;DHT22;11392;57.390;-2.468;2022-12-07T05:01:20;2.40;99.90
22450;DHT22;11392;57.390;-2.468;2022-12-07T05:03:47;2.40;99.90
22450;DHT22;11392;57.390;-2.468;2022-12-07T05:06:14;2.50;99.90
22450;DHT22;11392;57.390;-2.468;2022-12-07T05:08:41;2.50;99.90
22450;DHT22;11392;57.390;-2.468;2022-12-07T05:11:10;2.50;99.90
22450;DHT22;11392;57.390;-2.468;2022-12-07T05:14:02;2.50;99.90
22450;DHT22;11392;57.390;-2.468;2022-12-07T05:16:29;2.50;99.90
22450;DHT22;11392;57.390;-2.468;2022-12-07T05:18:56;2.50;99.90
22450;DHT22;11392;57.390;-2.468;2022-12-07T05:21:23;2.50;99.90
22450;DHT22;11392;57.390;-2.468;2022-12-07T05:23:51;2.50;99.90
22450;DHT22;11392;57.390;-2.468;2022-12-07T05:26:18;2.50;99.90
22450;DHT22;11392;57.390;-2.468;2022-12-07T05:28:45;2.60;99.90
22450;DHT22;11392;57.390;-2.468;2022-12-07T05:31:12;2.70;99.90
22450;DHT22;11392;57.390;-2.468;2022-12-07T05:33:39;2.70;99.90
22450;DHT22;11392;57.390;-2.468;2022-12-07T05:36:06;2.80;99.90
22450;DHT22;11392;57.390;-2.468;2022-12-07T05:38:34;2.80;99.90
22450;DHT22;11392;57.390;-2.468;2022-12-07T05:41:03;2.70;99.90
22450;DHT22;11392;57.390;-2.468;2022-12-07T05:43:30;2.70;99.90
22450;DHT22;11392;57.390;-2.468;2022-12-07T05:45:58;2.70;99.90
22450;DHT22;11392;57.390;-2.468;2022-12-07T05:48:26;2.70;99.90
22450;DHT22;11392;57.390;-2.468;2022-12-07T05:50:53;2.60;99.90
22450;DHT22;11392;57.390;-2.468;2022-12-07T05:53:20;2.60;99.90
22450;DHT22;11392;57.390;-2.468;2022-12-07T05:55:49;2.60;99.90
22450;DHT22;11392;57.390;-2.468;2022-12-07T05:58:16;2.70;99.90
22450;DHT22;11392;57.390;-2.468;2022-12-07T06:01:02;2.70;99.90
22450;DHT22;11392;57.390;-2.468;2022-12-07T06:03:29;2.70;99.90
22450;DHT22;11392;57.390;-2.468;2022-12-07T06:05:56;2.70;99.90
22450;DHT22;11392;57.390;-2.468;2022-12-07T06:08:23;2.80;99.90
22450;DHT22;11392;57.390;-2.468;2022-12-07T06:10:50;2.80;99.90
22450;DHT22;11392;57.390;-2.468;2022-12-07T06:13:36;2.80;99.90
22450;DHT22;11392;57.390;-2.468;2022-12-07T06:16:12;2.80;99.90
22450;DHT22;11392;57.390;-2.468;2022-12-07T06:18:39;2.70;99.90
22450;DHT22;11392;57.390;-2.468;2022-12-07T06:21:06;2.60;99.90
22450;DHT22;11392;57.390;-2.468;2022-12-07T06:23:33;2.50;99.90
22450;DHT22;11392;57.390;-2.468;2022-12-07T06:26:00;2.30;99.90
22450;DHT22;11392;57.390;-2.468;2022-12-07T06:28:27;2.30;99.90
22450;DHT22;11392;57.390;-2.468;2022-12-07T06:31:01;2.20;99.90
22450;DHT22;11392;57.390;-2.468;2022-12-07T06:33:28;2.20;99.90
22450;DHT22;11392;57.390;-2.468;2022-12-07T06:35:55;2.10;99.90
22450;DHT22;11392;57.390;-2.468;2022-12-07T06:38:22;2.20;99.90
22450;DHT22;11392;57.390;-2.468;2022-12-07T06:40:49;2.20;99.90
22450;DHT22;11392;57.390;-2.468;2022-12-07T06:43:16;2.20;99.90
22450;DHT22;11392;57.390;-2.468;2022-12-07T06:45:43;2.20;99.90
22450;DHT22;11392;57.390;-2.468;2022-12-07T06:48:10;2.20;99.90
22450;DHT22;11392;57.390;-2.468;2022-12-07T06:50:37;2.20;99.90
22450;DHT22;11392;57.390;-2.468;2022-12-07T06:53:04;2.30;99.90
22450;DHT22;11392;57.390;-2.468;2022-12-07T06:55:31;2.30;99.90
22450;DHT22;11392;57.390;-2.468;2022-12-07T06:57:58;2.30;99.90
22450;DHT22;11392;57.390;-2.468;2022-12-07T07:00:25;2.40;99.90
22450;DHT22;11392;57.390;-2.468;2022-12-07T07:02:52;2.50;99.90
22450;DHT22;11392;57.390;-2.468;2022-12-07T07:05:20;2.50;99.90
22450;DHT22;11392;57.390;-2.468;2022-12-07T07:07:50;2.50;99.90
22450;DHT22;11392;57.390;-2.468;2022-12-07T07:10:38;2.40;99.90
22450;DHT22;11392;57.390;-2.468;2022-12-07T07:13:05;2.20;99.90
22450;DHT22;11392;57.390;-2.468;2022-12-07T07:15:33;2.10;99.90
22450;DHT22;11392;57.390;-2.468;2022-12-07T07:18:00;2.10;99.90
22450;DHT22;11392;57.390;-2.468;2022-12-07T07:20:33;2.10;99.90
22450;DHT22;11392;57.390;-2.468;2022-12-07T07:23:00;2.10;99.90
22450;DHT22;11392;57.390;-2.468;2022-12-07T07:25:27;2.10;99.90
22450;DHT22;11392;57.390;-2.468;2022-12-07T07:27:54;2.00;99.90
22450;DHT22;11392;57.390;-2.468;2022-12-07T07:30:21;2.00;99.90
22450;DHT22;11392;57.390;-2.468;2022-12-07T07:32:48;1.90;99.90
22450;DHT22;11392;57.390;-2.468;2022-12-07T07:35:16;1.90;99.90
22450;DHT22;11392;57.390;-2.468;2022-12-07T07:37:43;2.00;99.90
22450;DHT22;11392;57.390;-2.468;2022-12-07T07:40:10;2.00;99.90
22450;DHT22;11392;57.390;-2.468;2022-12-07T07:42:37;2.10;99.90
22450;DHT22;11392;57.390;-2.468;2022-12-07T07:45:04;2.10;99.90
22450;DHT22;11392;57.390;-2.468;2022-12-07T07:47:31;2.20;99.90
22450;DHT22;11392;57.390;-2.468;2022-12-07T07:49:58;2.30;99.90
22450;DHT22;11392;57.390;-2.468;2022-12-07T07:52:26;2.20;99.90
22450;DHT22;11392;57.390;-2.468;2022-12-07T07:54:53;2.20;99.90
22450;DHT22;11392;57.390;-2.468;2022-12-07T07:57:20;2.20;99.90
22450;DHT22;11392;57.390;-2.468;2022-12-07T07:59:47;2.20;99.90
22450;DHT22;11392;57.390;-2.468;2022-12-07T08:02:16;2.20;99.90
22450;DHT22;11392;57.390;-2.468;2022-12-07T08:04:43;2.20;99.90
22450;DHT22;11392;57.390;-2.468;2022-12-07T08:07:12;2.10;99.90
22450;DHT22;11392;57.390;-2.468;2022-12-07T08:09:39;2.10;99.90
22450;DHT22;11392;57.390;-2.468;2022-12-07T08:12:08;2.00;99.90
22450;DHT22;11392;57.390;-2.468;2022-12-07T08:14:35;2.00;99.90
22450;DHT22;11392;57.390;-2.468;2022-12-07T08:17:02;1.90;99.90
22450;DHT22;11392;57.390;-2.468;2022-12-07T08:19:29;1.90;99.90
22450;DHT22;11392;57.390;-2.468;2022-12-07T08:21:56;1.80;99.90
22450;DHT22;11392;57.390;-2.468;2022-12-07T08:24:23;1.80;99.90
22450;DHT22;11392;57.390;-2.468;2022-12-07T08:26:51;1.80;99.90
22450;DHT22;11392;57.390;-2.468;2022-12-07T08:29:19;1.80;99.90
22450;DHT22;11392;57.390;-2.468;2022-12-07T08:31:46;1.80;99.90
22450;DHT22;11392;57.390;-2.468;2022-12-07T08:34:13;1.90;99.90
22450;DHT22;11392;57.390;-2.468;2022-12-07T08:36:41;1.90;99.90
22450;DHT22;11392;57.390;-2.468;2022-12-07T08:39:08;1.80;99.90
22450;DHT22;11392;57.390;-2.468;2022-12-07T08:41:55;1.80;99.90
22450;DHT22;11392;57.390;-2.468;2022-12-07T08:44:22;1.80;99.90
22450;DHT22;11392;57.390;-2.468;2022-12-07T08:46:53;1.80;99.90
22450;DHT22;11392;57.390;-2.468;2022-12-07T08:49:47;1.90;99.90
22450;DHT22;11392;57.390;-2.468;2022-12-07T08:52:13;1.90;99.90
22450;DHT22;11392;57.390;-2.468;2022-12-07T08:54:41;1.90;99.90
22450;DHT22;11392;57.390;-2.468;2022-12-07T08:57:09;1.90;99.90
22450;DHT22;11392;57.390;-2.468;2022-12-07T08:59:36;2.00;99.90
22450;DHT22;11392;57.390;-2.468;2022-12-07T09:02:04;2.20;99.90
22450;DHT22;11392;57.390;-2.468;2022-12-07T09:04:31;2.40;99.90
22450;DHT22;11392;57.390;-2.468;2022-12-07T09:06:59;2.50;99.90
22450;DHT22;11392;57.390;-2.468;2022-12-07T09:09:26;2.60;99.90
22450;DHT22;11392;57.390;-2.468;2022-12-07T09:11:53;2.70;99.90
22450;DHT22;11392;57.390;-2.468;2022-12-07T09:14:20;2.90;99.90
22450;DHT22;11392;57.390;-2.468;2022-12-07T09:16:47;2.90;99.90
22450;DHT22;11392;57.390;-2.468;2022-12-07T09:19:13;2.90;99.90
22450;DHT22;11392;57.390;-2.468;2022-12-07T09:21:40;2.90;99.90
22450;DHT22;11392;57.390;-2.468;2022-12-07T09:24:07;2.80;99.90
22450;DHT22;11392;57.390;-2.468;2022-12-07T09:26:35;2.80;99.90
22450;DHT22;11392;57.390;-2.468;2022-12-07T09:29:03;2.80;99.90
22450;DHT22;11392;57.390;-2.468;2022-12-07T09:31:30;2.70;99.90
22450;DHT22;11392;57.390;-2.468;2022-12-07T09:34:01;2.60;99.90
22450;DHT22;11392;57.390;-2.468;2022-12-07T09:36:28;2.70;99.90
22450;DHT22;11392;57.390;-2.468;2022-12-07T09:38:55;2.40;99.90
22450;DHT22;11392;57.390;-2.468;2022-12-07T09:41:24;2.30;99.90
22450;DHT22;11392;57.390;-2.468;2022-12-07T09:43:53;2.20;99.90
22450;DHT22;11392;57.390;-2.468;2022-12-07T09:46:23;2.30;99.90
22450;DHT22;11392;57.390;-2.468;2022-12-07T09:48:51;2.40;99.90
22450;DHT22;11392;57.390;-2.468;2022-12-07T09:51:23;2.60;99.90
22450;DHT22;11392;57.390;-2.468;2022-12-07T09:53:53;2.60;99.90
22450;DHT22;11392;57.390;-2.468;2022-12-07T09:56:22;2.90;99.90
22450;DHT22;11392;57.390;-2.468;2022-12-07T09:58:51;3.00;99.90
22450;DHT22;11392;57.390;-2.468;2022-12-07T10:01:21;2.90;99.90
22450;DHT22;11392;57.390;-2.468;2022-12-07T10:04:14;3.00;99.90
22450;DHT22;11392;57.390;-2.468;2022-12-07T10:06:43;3.00;99.90
22450;DHT22;11392;57.390;-2.468;2022-12-07T10:09:16;2.80;99.90
22450;DHT22;11392;57.390;-2.468;2022-12-07T10:14:33;2.70;99.90
22450;DHT22;11392;57.390;-2.468;2022-12-07T10:17:37;2.70;99.90
22450;DHT22;11392;57.390;-2.468;2022-12-07T10:20:17;3.00;99.90
22450;DHT22;11392;57.390;-2.468;2022-12-07T10:23:04;3.20;99.90
22450;DHT22;11392;57.390;-2.468;2022-12-07T10:25:34;3.40;99.90
22450;DHT22;11392;57.390;-2.468;2022-12-07T10:31:00;4.00;99.90
22450;DHT22;11392;57.390;-2.468;2022-12-07T10:35:59;4.30;99.90
22450;DHT22;11392;57.390;-2.468;2022-12-07T10:38:28;4.40;99.90
22450;DHT22;11392;57.390;-2.468;2022-12-07T10:41:04;4.10;99.90
22450;DHT22;11392;57.390;-2.468;2022-12-07T10:43:31;3.70;99.90
22450;DHT22;11392;57.390;-2.468;2022-12-07T10:48:58;4.20;99.90
22450;DHT22;11392;57.390;-2.468;2022-12-07T10:51:50;4.60;99.90
22450;DHT22;11392;57.390;-2.468;2022-12-07T11:00:13;5.20;99.90
22450;DHT22;11392;57.390;-2.468;2022-12-07T11:06:09;5.50;99.90
22450;DHT22;11392;57.390;-2.468;2022-12-07T11:11:36;5.00;99.90
22450;DHT22;11392;57.390;-2.468;2022-12-07T11:33:33;4.30;99.90
22450;DHT22;11392;57.390;-2.468;2022-12-07T11:36:49;4.20;99.90
22450;DHT22;11392;57.390;-2.468;2022-12-07T11:39:28;4.30;99.90
22450;DHT22;11392;57.390;-2.468;2022-12-07T11:42:03;4.20;99.90
22450;DHT22;11392;57.390;-2.468;2022-12-07T11:47:30;3.60;99.90
22450;DHT22;11392;57.390;-2.468;2022-12-07T11:55:52;3.10;99.90
22450;DHT22;11392;57.390;-2.468;2022-12-07T12:03:35;2.90;99.90
22450;DHT22;11392;57.390;-2.468;2022-12-07T12:06:04;2.80;99.90
22450;DHT22;11392;57.390;-2.468;2022-12-07T12:12:05;2.50;99.90
22450;DHT22;11392;57.390;-2.468;2022-12-07T12:20:32;2.80;99.90
22450;DHT22;11392;57.390;-2.468;2022-12-07T12:23:06;2.90;99.90
22450;DHT22;11392;57.390;-2.468;2022-12-07T12:25:40;3.00;99.90
22450;DHT22;11392;57.390;-2.468;2022-12-07T12:28:40;3.00;99.90
22450;DHT22;11392;57.390;-2.468;2022-12-07T12:33:52;3.10;99.90
22450;DHT22;11392;57.390;-2.468;2022-12-07T12:46:59;3.00;99.90
22450;DHT22;11392;57.390;-2.468;2022-12-07T12:51:58;2.70;99.90
22450;DHT22;11392;57.390;-2.468;2022-12-07T12:54:27;2.40;99.90
22450;DHT22;11392;57.390;-2.468;2022-12-07T12:57:11;2.30;99.90
22450;DHT22;11392;57.390;-2.468;2022-12-07T13:05:14;2.10;99.90
22450;DHT22;11392;57.390;-2.468;2022-12-07T13:29:17;3.80;99.90
22450;DHT22;11392;57.390;-2.468;2022-12-07T13:31:56;3.80;99.90
22450;DHT22;11392;57.390;-2.468;2022-12-07T13:37:15;3.80;99.90
22450;DHT22;11392;57.390;-2.468;2022-12-07T13:39:52;3.60;99.90
22450;DHT22;11392;57.390;-2.468;2022-12-07T13:42:25;3.50;99.90
22450;DHT22;11392;57.390;-2.468;2022-12-07T13:44:57;3.30;99.90
22450;DHT22;11392;57.390;-2.468;2022-12-07T13:47:43;3.10;99.90
22450;DHT22;11392;57.390;-2.468;2022-12-07T13:50:29;2.80;99.90
22450;DHT22;11392;57.390;-2.468;2022-12-07T13:52:59;2.60;99.90
22450;DHT22;11392;57.390;-2.468;2022-12-07T13:55:28;2.60;99.90
22450;DHT22;11392;57.390;-2.468;2022-12-07T13:57:56;2.60;99.90
22450;DHT22;11392;57.390;-2.468;2022-12-07T14:00:25;2.60;99.90
22450;DHT22;11392;57.390;-2.468;2022-12-07T14:03:03;2.50;99.90
22450;DHT22;11392;57.390;-2.468;2022-12-07T14:05:32;2.40;99.90
22450;DHT22;11392;57.390;-2.468;2022-12-07T14:08:01;2.30;99.90
22450;DHT22;11392;57.390;-2.468;2022-12-07T14:10:34;2.20;99.90
22450;DHT22;11392;57.390;-2.468;2022-12-07T14:13:04;2.00;99.90
22450;DHT22;11392;57.390;-2.468;2022-12-07T14:15:50;2.00;99.90
22450;DHT22;11392;57.390;-2.468;2022-12-07T14:18:27;1.90;99.90
22450;DHT22;11392;57.390;-2.468;2022-12-07T14:21:16;1.90;99.90
22450;DHT22;11392;57.390;-2.468;2022-12-07T14:23:45;1.90;99.90
22450;DHT22;11392;57.390;-2.468;2022-12-07T14:26:28;1.70;99.90
22450;DHT22;11392;57.390;-2.468;2022-12-07T14:29:48;1.70;99.90
22450;DHT22;11392;57.390;-2.468;2022-12-07T14:32:28;1.80;99.90
22450;DHT22;11392;57.390;-2.468;2022-12-07T14:35:18;1.70;99.90
22450;DHT22;11392;57.390;-2.468;2022-12-07T14:37:46;1.70;99.90
22450;DHT22;11392;57.390;-2.468;2022-12-07T14:40:20;1.80;99.90
22450;DHT22;11392;57.390;-2.468;2022-12-07T14:43:11;1.80;99.90
22450;DHT22;11392;57.390;-2.468;2022-12-07T14:45:36;1.80;99.90
22450;DHT22;11392;57.390;-2.468;2022-12-07T14:48:03;1.90;99.90
22450;DHT22;11392;57.390;-2.468;2022-12-07T14:50:52;2.00;99.90
22450;DHT22;11392;57.390;-2.468;2022-12-07T14:53:46;2.00;99.90
22450;DHT22;11392;57.390;-2.468;2022-12-07T14:56:23;2.00;99.90
22450;DHT22;11392;57.390;-2.468;2022-12-07T14:58:50;2.00;99.90
22450;DHT22;11392;57.390;-2.468;2022-12-07T15:01:17;1.80;99.90
22450;DHT22;11392;57.390;-2.468;2022-12-07T15:04:09;1.80;99.90
22450;DHT22;11392;57.390;-2.468;2022-12-07T15:06:36;1.90;99.90
22450;DHT22;11392;57.390;-2.468;2022-12-07T15:09:03;1.80;99.90
22450;DHT22;11392;57.390;-2.468;2022-12-07T15:11:30;1.80;99.90
22450;DHT22;11392;57.390;-2.468;2022-12-07T15:13:57;1.90;99.90
22450;DHT22;11392;57.390;-2.468;2022-12-07T15:16:42;1.90;99.90
22450;DHT22;11392;57.390;-2.468;2022-12-07T15:19:29;1.90;99.90
22450;DHT22;11392;57.390;-2.468;2022-12-07T15:21:57;1.90;99.90
22450;DHT22;11392;57.390;-2.468;2022-12-07T15:24:25;2.00;99.90
22450;DHT22;11392;57.390;-2.468;2022-12-07T15:26:53;1.90;99.90
22450;DHT22;11392;57.390;-2.468;2022-12-07T15:29:20;2.00;99.90
22450;DHT22;11392;57.390;-2.468;2022-12-07T15:31:50;2.00;99.90
22450;DHT22;11392;57.390;-2.468;2022-12-07T15:34:25;1.90;99.90
22450;DHT22;11392;57.390;-2.468;2022-12-07T15:36:52;1.80;99.90
22450;DHT22;11392;57.390;-2.468;2022-12-07T15:39:19;1.90;99.90
22450;DHT22;11392;57.390;-2.468;2022-12-07T15:41:46;1.90;99.90
22450;DHT22;11392;57.390;-2.468;2022-12-07T15:44:14;1.90;99.90
22450;DHT22;11392;57.390;-2.468;2022-12-07T15:47:00;1.90;99.90
22450;DHT22;11392;57.390;-2.468;2022-12-07T15:49:27;1.90;99.90
22450;DHT22;11392;57.390;-2.468;2022-12-07T15:51:55;1.90;99.90
22450;DHT22;11392;57.390;-2.468;2022-12-07T15:54:27;2.00;99.90
22450;DHT22;11392;57.390;-2.468;2022-12-07T15:56:55;2.00;99.90
22450;DHT22;11392;57.390;-2.468;2022-12-07T15:59:22;2.00;99.90
22450;DHT22;11392;57.390;-2.468;2022-12-07T16:01:49;2.10;99.90
22450;DHT22;11392;57.390;-2.468;2022-12-07T16:04:16;2.10;99.90
22450;DHT22;11392;57.390;-2.468;2022-12-07T16:06:43;2.00;99.90
22450;DHT22;11392;57.390;-2.468;2022-12-07T16:09:11;2.00;99.90
22450;DHT22;11392;57.390;-2.468;2022-12-07T16:11:38;1.90;99.90
22450;DHT22;11392;57.390;-2.468;2022-12-07T16:14:05;2.00;99.90
22450;DHT22;11392;57.390;-2.468;2022-12-07T16:16:32;2.00;99.90
22450;DHT22;11392;57.390;-2.468;2022-12-07T16:19:00;2.00;99.90
22450;DHT22;11392;57.390;-2.468;2022-12-07T16:21:26;1.90;99.90
22450;DHT22;11392;57.390;-2.468;2022-12-07T16:23:54;1.90;99.90
22450;DHT22;11392;57.390;-2.468;2022-12-07T16:26:23;1.90;99.90
22450;DHT22;11392;57.390;-2.468;2022-12-07T16:28:51;1.80;99.90
22450;DHT22;11392;57.390;-2.468;2022-12-07T16:31:21;1.80;99.90
22450;DHT22;11392;57.390;-2.468;2022-12-07T16:33:50;1.80;99.90
22450;DHT22;11392;57.390;-2.468;2022-12-07T16:36:17;1.90;99.90
22450;DHT22;11392;57.390;-2.468;2022-12-07T16:39:05;1.80;99.90
22450;DHT22;11392;57.390;-2.468;2022-12-07T16:41:32;1.90;99.90
22450;DHT22;11392;57.390;-2.468;2022-12-07T16:44:04;1.90;99.90
22450;DHT22;11392;57.390;-2.468;2022-12-07T16:46:33;1.90;99.90
22450;DHT22;11392;57.390;-2.468;2022-12-07T16:49:00;1.90;99.90
22450;DHT22;11392;57.390;-2.468;2022-12-07T16:51:27;2.00;99.90
22450;DHT22;11392;57.390;-2.468;2022-12-07T16:53:55;1.90;99.90
22450;DHT22;11392;57.390;-2.468;2022-12-07T16:56:22;1.90;99.90
22450;DHT22;11392;57.390;-2.468;2022-12-07T16:58:53;1.90;99.90
22450;DHT22;11392;57.390;-2.468;2022-12-07T17:01:23;1.90;99.90
22450;DHT22;11392;57.390;-2.468;2022-12-07T17:03:50;1.90;99.90
22450;DHT22;11392;57.390;-2.468;2022-12-07T17:06:20;2.00;99.90
22450;DHT22;11392;57.390;-2.468;2022-12-07T17:08:49;2.00;99.90
22450;DHT22;11392;57.390;-2.468;2022-12-07T17:11:20;2.00;99.90
22450;DHT22;11392;57.390;-2.468;2022-12-07T17:13:47;1.90;99.90
22450;DHT22;11392;57.390;-2.468;2022-12-07T17:16:33;1.80;99.90
22450;DHT22;11392;57.390;-2.468;2022-12-07T17:19:06;1.80;99.90
22450;DHT22;11392;57.390;-2.468;2022-12-07T17:21:34;1.70;99.90
22450;DHT22;11392;57.390;-2.468;2022-12-07T17:24:03;1.70;99.90
22450;DHT22;11392;57.390;-2.468;2022-12-07T17:26:30;1.70;99.90
22450;DHT22;11392;57.390;-2.468;2022-12-07T17:29:03;1.70;99.90
22450;DHT22;11392;57.390;-2.468;2022-12-07T17:31:30;1.70;99.90
22450;DHT22;11392;57.390;-2.468;2022-12-07T17:33:59;1.70;99.90
22450;DHT22;11392;57.390;-2.468;2022-12-07T17:36:28;1.70;99.90
22450;DHT22;11392;57.390;-2.468;2022-12-07T17:38:56;1.80;99.90
22450;DHT22;11392;57.390;-2.468;2022-12-07T17:41:25;1.90;99.90
22450;DHT22;11392;57.390;-2.468;2022-12-07T17:44:16;1.90;99.90
22450;DHT22;11392;57.390;-2.468;2022-12-07T17:46:46;1.90;99.90
22450;DHT22;11392;57.390;-2.468;2022-12-07T17:49:14;2.00;99.90
22450;DHT22;11392;57.390;-2.468;2022-12-07T17:51:41;2.00;99.90
22450;DHT22;11392;57.390;-2.468;2022-12-07T17:54:27;1.90;99.90
22450;DHT22;11392;57.390;-2.468;2022-12-07T17:56:54;1.90;99.90
22450;DHT22;11392;57.390;-2.468;2022-12-07T17:59:22;1.90;99.90
22450;DHT22;11392;57.390;-2.468;2022-12-07T18:01:49;1.90;99.90
22450;DHT22;11392;57.390;-2.468;2022-12-07T18:04:16;1.80;99.90
22450;DHT22;11392;57.390;-2.468;2022-12-07T18:06:43;1.80;99.90
22450;DHT22;11392;57.390;-2.468;2022-12-07T18:09:17;1.70;99.90
22450;DHT22;11392;57.390;-2.468;2022-12-07T18:11:45;1.70;99.90
22450;DHT22;11392;57.390;-2.468;2022-12-07T18:14:11;1.70;99.90
22450;DHT22;11392;57.390;-2.468;2022-12-07T18:16:38;1.70;99.90
22450;DHT22;11392;57.390;-2.468;2022-12-07T18:19:06;1.60;99.90
22450;DHT22;11392;57.390;-2.468;2022-12-07T18:21:35;1.60;99.90
22450;DHT22;11392;57.390;-2.468;2022-12-07T18:24:03;1.60;99.90